Kaw City, Oklahoma
Current Conditions -  °F | °C
As of 2:53 PM on Wednesday 17 Dec 2014 (Local Time) from KPNC Reporting Station
Unknown Precip Unknown Precip  
Wind Chill: 31°   Ceiling: 6500
Heat Index: 35°   Visibility: 10mi
Dew Point: 30°   Wind: 5mph
Humidity: 82%   Direction: 140°SE
Pressure: 30.19"   Gusts: NA
Location:  36.78°N, 96.88°W
Report Text: KPNC 172053Z AUTO 14004KT 10SM UP OVC065 02/M01 A3019 RMK AO2 RAE52UPB27E33B52 SLP228 P0001 60002 T00171011 55013
Loading
Personal Weather Stations






























Interactive Weather Map New forecast layout! Learn more

10-Day Weather Forecast

Advertisements
Track Severe Weather on mobile